Time;durP1;ratioP1;P1;durP2;ratioP2;P2;SDS_P1;SDS_P2;PMS_P1;PMS_P2;Temp;Humidity;BMP_temperature;BMP_pressure;BME280_temperature;BME280_humidity;BME280_pressure;Samples;Min_cycle;Max_cycle;Signal;HPM_P1;HPM_P2
2021/04/04 00:01:21;;;;;;;5.33;3.07;;;5.70;82.40;;;;;;5050322;28;20199;-64
2021/04/04 00:03:48;;;;;;;6.10;3.33;;;5.60;85.40;;;;;;5050601;28;20228;-65
2021/04/04 00:06:13;;;;;;;8.70;3.00;;;5.60;85.80;;;;;;5050474;28;20236;-64
2021/04/04 00:08:39;;;;;;;6.73;2.97;;;5.60;87.00;;;;;;5050287;28;20413;-64
2021/04/04 00:11:05;;;;;;;8.20;2.60;;;5.50;87.70;;;;;;5050557;28;20185;-66
2021/04/04 00:13:32;;;;;;;6.17;2.83;;;5.60;88.70;;;;;;5050241;28;20178;-65
2021/04/04 00:15:58;;;;;;;6.70;2.90;;;5.50;86.50;;;;;;5050464;28;20631;-65
2021/04/04 00:18:23;;;;;;;4.50;2.90;;;5.60;88.90;;;;;;5050488;28;20495;-64
2021/04/04 00:20:49;;;;;;;4.40;2.70;;;5.90;89.80;;;;;;5049972;28;20540;-64
2021/04/04 00:23:15;;;;;;;4.33;2.67;;;5.90;86.20;;;;;;5050497;28;20175;-64
2021/04/04 00:25:40;;;;;;;10.73;2.47;;;5.80;84.80;;;;;;5050043;28;20175;-64
2021/04/04 00:28:06;;;;;;;6.70;3.00;;;5.90;88.30;;;;;;5050197;28;20525;-64
2021/04/04 00:30:32;;;;;;;5.10;2.50;;;5.80;84.00;;;;;;5050337;28;20175;-64
2021/04/04 00:32:57;;;;;;;10.67;2.43;;;5.80;88.80;;;;;;5050193;28;20179;-64
2021/04/04 00:35:23;;;;;;;4.43;2.80;;;5.80;86.20;;;;;;5050203;28;20168;-63
2021/04/04 00:37:53;;;;;;;5.50;2.50;;;5.80;88.80;;;;;;5050114;28;20573;-64
2021/04/04 00:40:27;;;;;;;6.70;2.73;;;5.60;89.20;;;;;;5036828;28;20253;-64
2021/04/04 00:42:53;;;;;;;6.93;2.87;;;5.50;90.10;;;;;;5030052;28;20410;-65
2021/04/04 00:45:20;;;;;;;4.50;2.93;;;5.50;90.90;;;;;;5030325;28;20525;-65
2021/04/04 00:47:46;;;;;;;5.87;3.00;;;5.60;90.20;;;;;;5030611;28;20514;-65
2021/04/04 00:50:13;;;;;;;7.93;2.67;;;5.50;90.30;;;;;;5029668;28;20423;-64
2021/04/04 00:52:39;;;;;;;4.13;2.50;;;5.40;91.20;;;;;;5053873;28;20213;-64
2021/04/04 00:55:07;;;;;;;5.33;2.80;;;5.20;90.40;;;;;;5053658;28;20467;-64
2021/04/04 00:57:34;;;;;;;7.87;2.63;;;5.20;91.30;;;;;;5053835;28;20417;-64
2021/04/04 01:00:01;;;;;;;6.53;2.47;;;5.30;92.10;;;;;;5053612;28;20981;-63
2021/04/04 01:02:27;;;;;;;7.13;2.60;;;5.30;91.30;;;;;;5053553;28;20409;-64
2021/04/04 01:04:54;;;;;;;4.20;2.40;;;5.20;90.70;;;;;;5053370;28;20413;-64
2021/04/04 01:07:20;;;;;;;4.70;3.00;;;5.10;90.60;;;;;;5053547;28;20410;-65
2021/04/04 01:09:46;;;;;;;5.13;2.67;;;4.90;91.80;;;;;;5053764;28;20413;-63
2021/04/04 01:12:30;;;;;;;5.20;2.53;;;4.90;93.70;;;;;;5053460;28;20209;-65
2021/04/04 01:15:01;;;;;;;4.27;2.40;;;5.10;92.80;;;;;;5053365;28;20412;-64
2021/04/04 01:17:31;;;;;;;8.47;3.47;;;5.20;91.10;;;;;;5053387;28;20817;-63
2021/04/04 01:20:08;;;;;;;7.70;2.77;;;5.20;90.90;;;;;;5053310;28;20963;-64
2021/04/04 01:23:19;;;;;;;4.57;2.40;;;5.20;91.90;;;;;;5053152;28;20414;-65
2021/04/04 01:25:47;;;;;;;4.73;2.63;;;5.20;92.00;;;;;;5037668;28;20417;-65
2021/04/04 01:28:29;;;;;;;4.33;3.10;;;5.00;91.00;;;;;;5053220;28;20967;-64
2021/04/04 01:30:55;;;;;;;6.60;3.00;;;4.80;91.40;;;;;;5053245;28;20489;-63
2021/04/04 01:33:23;;;;;;;6.27;2.77;;;4.60;93.50;;;;;;5053118;28;20417;-64
2021/04/04 01:35:54;;;;;;;8.67;3.00;;;4.60;93.00;;;;;;5053065;28;20416;-65
2021/04/04 01:38:23;;;;;;;5.10;2.30;;;4.50;93.90;;;;;;5052953;28;20420;-65
2021/04/04 01:41:06;;;;;;;9.97;2.60;;;4.60;93.80;;;;;;5048689;28;20558;-64
2021/04/04 01:43:32;;;;;;;6.50;2.83;;;4.60;92.80;;;;;;5032857;28;20418;-66
2021/04/04 01:45:59;;;;;;;5.17;2.43;;;4.70;92.70;;;;;;5041907;28;20547;-65
2021/04/04 01:48:26;;;;;;;4.80;2.60;;;4.50;92.70;;;;;;5052769;28;20417;-63
2021/04/04 01:50:52;;;;;;;6.90;2.93;;;4.40;92.50;;;;;;5033410;28;20414;-63
2021/04/04 01:53:19;;;;;;;5.03;2.40;;;4.30;94.70;;;;;;5052603;28;20434;-64
2021/04/04 01:55:47;;;;;;;5.13;2.70;;;4.40;93.70;;;;;;5052636;28;20414;-65
2021/04/04 01:58:13;;;;;;;8.00;2.50;;;4.30;93.90;;;;;;5052867;28;20861;-63
2021/04/04 02:00:40;;;;;;;5.30;2.60;;;4.20;94.90;;;;;;5051843;28;20441;-64
2021/04/04 02:03:08;;;;;;;4.97;2.63;;;4.20;94.60;;;;;;5052273;28;20416;-64
2021/04/04 02:05:34;;;;;;;7.23;3.07;;;4.20;95.90;;;;;;5052677;28;20426;-65
2021/04/04 02:08:07;;;;;;;9.03;2.90;;;4.30;95.00;;;;;;5052406;28;20917;-63
2021/04/04 02:10:34;;;;;;;4.60;2.30;;;4.20;95.50;;;;;;5052149;28;20422;-63
2021/04/04 02:13:01;;;;;;;6.33;2.40;;;4.20;94.70;;;;;;5052368;28;20414;-64
2021/04/04 02:15:29;;;;;;;6.53;3.10;;;4.10;94.30;;;;;;5052274;28;20969;-63
2021/04/04 02:17:55;;;;;;;5.93;2.53;;;4.20;95.90;;;;;;5052210;28;20428;-65
2021/04/04 02:20:23;;;;;;;6.70;2.70;;;4.30;95.20;;;;;;5052137;28;20446;-62
2021/04/04 02:22:50;;;;;;;3.53;2.50;;;4.40;95.50;;;;;;5052571;28;20414;-65
2021/04/04 02:25:16;;;;;;;7.23;2.87;;;4.60;94.70;;;;;;5052304;28;20716;-63
2021/04/04 02:27:43;;;;;;;8.03;2.70;;;4.80;94.60;;;;;;5051967;28;20463;-64
2021/04/04 02:30:13;;;;;;;5.30;2.80;;;4.70;92.90;;;;;;5052162;28;20508;-63
2021/04/04 02:32:45;;;;;;;4.80;2.63;;;4.60;92.80;;;;;;5034080;28;20476;-64
2021/04/04 02:35:12;;;;;;;7.60;2.97;;;;;;;;;;5051905;28;20413;-63
2021/04/04 02:37:38;;;;;;;5.37;3.00;;;4.40;94.80;;;;;;5042475;28;20422;-64
2021/04/04 02:40:09;;;;;;;5.60;2.60;;;4.40;94.40;;;;;;5031905;28;20446;-63
2021/04/04 02:42:37;;;;;;;4.73;2.40;;;4.20;93.50;;;;;;5031657;28;20426;-64
2021/04/04 02:45:06;;;;;;;7.87;3.40;;;4.20;94.90;;;;;;5032285;28;20437;-64
2021/04/04 02:47:54;;;;;;;5.27;2.83;;;4.20;95.40;;;;;;5031774;28;20523;-64
2021/04/04 02:50:22;;;;;;;5.57;2.70;;;4.00;94.90;;;;;;4997137;28;21105;-65
2021/04/04 02:52:49;;;;;;;5.73;2.57;;;3.90;95.20;;;;;;5031758;28;20418;-63
2021/04/04 02:55:17;;;;;;;4.57;2.60;;;3.80;95.70;;;;;;5031644;28;20505;-65
2021/04/04 02:57:45;;;;;;;7.27;2.93;;;3.70;96.40;;;;;;5031512;28;20410;-65
2021/04/04 03:00:12;;;;;;;5.93;2.87;;;3.60;97.10;;;;;;5013676;28;20461;-65
2021/04/04 03:02:39;;;;;;;6.77;2.90;;;3.60;97.40;;;;;;5031517;28;20410;-64
2021/04/04 03:05:07;;;;;;;5.40;2.97;;;3.50;97.20;;;;;;5031713;28;20414;-65
2021/04/04 03:07:35;;;;;;;4.80;2.70;;;3.50;99.50;;;;;;5031431;28;20480;-64
2021/04/04 03:10:02;;;;;;;4.50;2.43;;;3.60;98.40;;;;;;5050207;28;20931;-65
2021/04/04 03:12:30;;;;;;;5.77;3.00;;;3.60;98.40;;;;;;5051366;28;20418;-64
2021/04/04 03:14:58;;;;;;;5.77;3.10;;;3.50;98.70;;;;;;5033446;28;20915;-65
2021/04/04 03:17:26;;;;;;;4.67;3.10;;;3.60;98.30;;;;;;5051323;28;20825;-65
2021/04/04 03:19:52;;;;;;;5.20;2.83;;;3.60;97.40;;;;;;5050902;28;20963;-63
2021/04/04 03:22:20;;;;;;;3.67;2.53;;;3.50;97.70;;;;;;5051077;28;20414;-62
2021/04/04 03:24:47;;;;;;;8.77;3.17;;;3.40;97.60;;;;;;5051057;28;20437;-66
2021/04/04 03:27:14;;;;;;;11.47;3.10;;;3.40;97.90;;;;;;5051112;28;20417;-66
2021/04/04 03:29:40;;;;;;;4.80;2.80;;;3.30;98.90;;;;;;5050920;28;20919;-63
2021/04/04 03:32:06;;;;;;;6.63;2.97;;;3.20;98.90;;;;;;5050882;28;20416;-65
2021/04/04 03:34:33;;;;;;;6.67;3.00;;;3.30;99.80;;;;;;5050729;28;20428;-62
2021/04/04 03:37:00;;;;;;;5.57;2.50;;;3.50;99.90;;;;;;5041710;28;20460;-63
2021/04/04 03:39:26;;;;;;;9.60;3.20;;;3.60;99.60;;;;;;5031071;28;20441;-66
2021/04/04 03:42:01;;;;;;;7.17;2.93;;;3.60;97.60;;;;;;5031039;28;20949;-65
2021/04/04 03:44:30;;;;;;;5.70;2.77;;;3.60;99.10;;;;;;5031103;28;20766;-63
2021/04/04 03:47:03;;;;;;;4.87;2.73;;;3.60;98.90;;;;;;5017142;28;20454;-63
2021/04/04 03:49:38;;;;;;;4.93;2.73;;;3.80;97.70;;;;;;5010746;28;20551;-64
2021/04/04 03:52:06;;;;;;;7.43;3.10;;;3.70;97.80;;;;;;5011148;28;20811;-65
2021/04/04 03:54:34;;;;;;;6.20;2.93;;;3.90;98.50;;;;;;5011002;28;20572;-64
2021/04/04 03:57:00;;;;;;;7.37;2.63;;;4.00;97.50;;;;;;5010747;28;20976;-63
2021/04/04 03:59:29;;;;;;;8.93;2.90;;;4.20;96.70;;;;;;5010920;28;20411;-63
2021/04/04 04:01:56;;;;;;;3.80;2.40;;;4.20;94.80;;;;;;5010728;28;20462;-64
2021/04/04 04:04:28;;;;;;;5.30;2.70;;;4.10;96.70;;;;;;5010655;28;20424;-63
2021/04/04 04:06:55;;;;;;;9.73;2.97;;;4.10;96.70;;;;;;5020439;28;20445;-65
2021/04/04 04:09:21;;;;;;;5.93;3.20;;;4.20;96.40;;;;;;5030387;28;20808;-64
2021/04/04 04:11:49;;;;;;;6.47;2.80;;;4.20;96.20;;;;;;5030421;28;20415;-65
2021/04/04 04:14:18;;;;;;;7.03;2.70;;;4.30;95.60;;;;;;5030383;28;20175;-64
2021/04/04 04:16:44;;;;;;;7.77;2.97;;;4.20;96.00;;;;;;5030182;28;20411;-65
2021/04/04 04:19:17;;;;;;;5.47;3.00;;;4.20;96.40;;;;;;5030630;28;20426;-65
2021/04/04 04:21:44;;;;;;;8.80;2.80;;;4.20;96.00;;;;;;5030190;28;20485;-66
2021/04/04 04:24:12;;;;;;;5.93;3.00;;;4.30;96.50;;;;;;5031103;28;20484;-63
2021/04/04 04:26:41;;;;;;;6.87;3.20;;;4.10;95.70;;;;;;5034279;28;20846;-65
2021/04/04 04:29:10;;;;;;;4.70;2.77;;;4.00;95.70;;;;;;5034268;28;20971;-64
2021/04/04 04:31:38;;;;;;;5.37;2.67;;;3.80;96.30;;;;;;5034427;28;20770;-65
2021/04/04 04:34:07;;;;;;;4.60;2.53;;;3.60;96.00;;;;;;5034279;28;20426;-64
2021/04/04 04:36:35;;;;;;;6.93;3.03;;;3.40;97.50;;;;;;5034644;28;20425;-64
2021/04/04 04:39:03;;;;;;;5.00;2.47;;;3.60;99.30;;;;;;5034195;28;20453;-64
2021/04/04 04:41:32;;;;;;;6.87;3.40;;;3.60;98.90;;;;;;5034341;28;20947;-64
2021/04/04 04:44:04;;;;;;;4.80;2.90;;;3.70;98.70;;;;;;5033909;28;20415;-65
2021/04/04 04:46:31;;;;;;;8.43;3.17;;;3.60;97.60;;;;;;5034380;28;20441;-65
2021/04/04 04:48:57;;;;;;;7.87;3.60;;;3.60;98.90;;;;;;5034055;28;20468;-65
2021/04/04 04:51:23;;;;;;;8.43;3.50;;;3.70;98.40;;;;;;5033807;28;20419;-64
2021/04/04 04:53:50;;;;;;;6.53;3.07;;;3.70;97.50;;;;;;5017429;28;20270;-67
2021/04/04 04:56:17;;;;;;;7.63;2.87;;;3.60;97.90;;;;;;5053335;28;20409;-66
2021/04/04 04:58:43;;;;;;;4.77;2.63;;;3.40;97.50;;;;;;5053967;28;20445;-64
2021/04/04 05:01:16;;;;;;;5.60;2.77;;;3.30;98.80;;;;;;5053422;28;20449;-67
2021/04/04 05:03:41;;;;;;;5.50;2.83;;;3.20;98.40;;;;;;5053600;28;20817;-67
2021/04/04 05:06:11;;;;;;;8.87;3.23;;;3.00;99.30;;;;;;5053524;28;20548;-66
2021/04/04 05:08:39;;;;;;;7.47;3.27;;;3.00;99.90;;;;;;5053591;28;20175;-65
2021/04/04 05:11:08;;;;;;;6.53;3.43;;;3.10;99.90;;;;;;5053556;28;20441;-66
2021/04/04 05:13:37;;;;;;;7.77;3.20;;;3.20;99.30;;;;;;5052551;28;20426;-65
2021/04/04 05:16:09;;;;;;;10.30;3.33;;;3.10;99.90;;;;;;5053651;28;20414;-65
2021/04/04 05:18:36;;;;;;;7.13;3.33;;;3.10;99.90;;;;;;5053303;28;20421;-65
2021/04/04 05:21:02;;;;;;;8.23;3.93;;;3.20;99.90;;;;;;5053416;28;20963;-65
2021/04/04 05:23:27;;;;;;;9.93;3.30;;;3.10;99.40;;;;;;5053053;28;20459;-66
2021/04/04 05:25:54;;;;;;;5.87;3.00;;;3.10;99.90;;;;;;5053196;28;20175;-65
2021/04/04 05:28:19;;;;;;;6.33;3.30;;;3.10;99.90;;;;;;5052922;28;20257;-64
2021/04/04 05:30:45;;;;;;;4.53;2.53;;;3.20;99.90;;;;;;5053045;28;20446;-66
2021/04/04 05:33:11;;;;;;;8.47;3.37;;;3.30;99.90;;;;;;5053264;28;20187;-65
2021/04/04 05:35:39;;;;;;;8.43;3.27;;;3.40;98.50;;;;;;5052209;28;20213;-64
2021/04/04 05:38:06;;;;;;;7.37;3.43;;;3.60;99.70;;;;;;5052966;28;20425;-63
2021/04/04 05:40:32;;;;;;;5.93;3.23;;;3.60;99.00;;;;;;5053128;28;20467;-63
2021/04/04 05:43:00;;;;;;;7.73;3.37;;;3.50;98.30;;;;;;5052805;28;20422;-65
2021/04/04 05:45:44;;;;;;;8.30;4.03;;;3.50;99.90;;;;;;5053160;28;20429;-63
2021/04/04 05:48:52;;;;;;;11.33;4.87;;;3.40;99.10;;;;;;5034957;28;20473;-65
2021/04/04 05:51:39;;;;;;;8.87;4.70;;;3.60;99.90;;;;;;5052470;28;20445;-64
2021/04/04 05:54:45;;;;;;;5.50;4.40;;;3.90;99.40;;;;;;5036583;28;20407;-65
2021/04/04 05:57:26;;;;;;;10.93;4.20;;;4.20;97.80;;;;;;5032556;28;20422;-65
2021/04/04 05:59:57;;;;;;;5.97;3.07;;;4.20;97.40;;;;;;5052666;28;20422;-64
2021/04/04 06:02:45;;;;;;;6.77;3.20;;;4.30;96.20;;;;;;5033109;28;22293;-64
2021/04/04 06:05:48;;;;;;;6.43;3.73;;;4.30;96.30;;;;;;5032445;28;20421;-65
2021/04/04 06:08:29;;;;;;;7.23;2.73;;;4.40;97.10;;;;;;5031599;28;20418;-64
2021/04/04 06:11:28;;;;;;;7.67;2.97;;;4.30;96.40;;;;;;5032604;28;20423;-65
2021/04/04 06:14:07;;;;;;;5.47;3.20;;;4.40;97.10;;;;;;5046265;28;20428;-66
2021/04/04 06:16:55;;;;;;;5.63;3.20;;;4.40;96.00;;;;;;5052604;28;20929;-64
2021/04/04 06:19:39;;;;;;;8.33;4.00;;;4.50;95.90;;;;;;5035746;28;20425;-65
2021/04/04 06:22:13;;;;;;;12.37;3.47;;;4.50;96.60;;;;;;5052340;28;20436;-64
2021/04/04 06:24:52;;;;;;;11.37;5.33;;;4.60;96.20;;;;;;5035423;28;20465;-64
2021/04/04 06:27:20;;;;;;;8.03;3.73;;;4.80;96.40;;;;;;5037235;28;20453;-65
2021/04/04 06:29:52;;;;;;;10.00;3.10;;;5.00;95.90;;;;;;5040685;28;20506;-64
2021/04/04 06:32:27;;;;;;;7.50;3.43;;;5.10;95.10;;;;;;5032115;28;20793;-66
2021/04/04 06:34:59;;;;;;;6.80;4.27;;;5.20;93.90;;;;;;5032070;28;20418;-63
2021/04/04 06:37:43;;;;;;;10.77;4.83;;;5.40;93.90;;;;;;5032040;28;20422;-64
2021/04/04 06:40:11;;;;;;;8.53;4.57;;;5.50;94.00;;;;;;5031702;28;20493;-63
2021/04/04 06:43:07;;;;;;;7.20;3.40;;;5.60;93.50;;;;;;5050671;28;20747;-65
2021/04/04 06:45:41;;;;;;;7.30;3.60;;;5.60;93.40;;;;;;5051603;28;20787;-63
2021/04/04 06:48:29;;;;;;;8.13;3.70;;;5.70;93.10;;;;;;5051429;28;20413;-66
2021/04/04 06:51:04;;;;;;;11.73;5.03;;;5.80;92.90;;;;;;5051479;28;20405;-65
2021/04/04 06:54:00;;;;;;;7.97;4.13;;;5.90;92.60;;;;;;5051369;28;20440;-66
2021/04/04 06:56:58;;;;;;;8.43;3.80;;;6.00;92.80;;;;;;5051396;28;20418;-65
2021/04/04 06:59:51;;;;;;;8.50;3.73;;;6.20;93.40;;;;;;5042219;28;20407;-65
2021/04/04 07:02:21;;;;;;;9.07;4.10;;;6.40;93.30;;;;;;5031678;28;20816;-66
2021/04/04 07:04:53;;;;;;;10.73;4.50;;;6.70;92.80;;;;;;5050066;28;20471;-62
2021/04/04 07:07:40;;;;;;;17.03;4.77;;;6.90;92.80;;;;;;5051298;28;20413;-64
2021/04/04 07:10:43;;;;;;;15.30;5.43;;;7.10;93.10;;;;;;5051391;28;20437;-64
2021/04/04 07:13:19;;;;;;;18.33;6.37;;;7.40;93.80;;;;;;5051194;28;21240;-64
2021/04/04 07:15:48;;;;;;;14.60;5.23;;;7.60;93.10;;;;;;5040780;28;20425;-65
2021/04/04 07:18:32;;;;;;;11.93;5.70;;;7.80;92.60;;;;;;5031330;28;20496;-62
2021/04/04 07:21:26;;;;;;;18.87;5.93;;;7.90;92.40;;;;;;5030774;28;20458;-65
2021/04/04 07:24:11;;;;;;;21.87;7.03;;;8.00;91.10;;;;;;5031177;28;20414;-66
2021/04/04 07:27:08;;;;;;;14.33;6.03;;;8.20;91.30;;;;;;5050990;28;20409;-65
2021/04/04 07:29:49;;;;;;;22.60;6.33;;;8.40;91.00;;;;;;5050873;28;20919;-65
2021/04/04 07:32:22;;;;;;;13.63;5.23;;;8.50;90.50;;;;;;5050832;28;20425;-68
2021/04/04 07:34:58;;;;;;;19.63;6.43;;;8.50;90.70;;;;;;5050343;28;20413;-64
2021/04/04 07:37:29;;;;;;;15.63;6.63;;;8.60;90.00;;;;;;5050483;28;20524;-70
2021/04/04 07:40:08;;;;;;;21.60;6.33;;;8.70;90.10;;;;;;5050635;28;20413;-69
2021/04/04 07:42:45;;;;;;;15.00;6.53;;;8.70;87.30;;;;;;5050361;28;20429;-65
2021/04/04 07:45:29;;;;;;;12.87;6.70;;;8.70;89.50;;;;;;5050596;28;20478;-67
2021/04/04 07:48:04;;;;;;;16.47;6.07;;;8.80;88.80;;;;;;5031601;28;20450;-68
2021/04/04 07:50:56;;;;;;;14.30;6.50;;;8.90;87.50;;;;;;5030501;28;20443;-69
2021/04/04 07:53:36;;;;;;;13.93;5.90;;;8.90;87.10;;;;;;5045950;28;20530;-68
2021/04/04 07:56:11;;;;;;;18.17;6.17;;;9.00;86.90;;;;;;5050377;28;20926;-67
2021/04/04 07:58:40;;;;;;;17.20;6.80;;;9.00;84.30;;;;;;5049542;28;20860;-66
2021/04/04 08:01:19;;;;;;;12.93;6.57;;;9.10;83.70;;;;;;5050205;28;20461;-68
2021/04/04 08:04:10;;;;;;;21.57;8.20;;;9.10;84.80;;;;;;5050037;28;20610;-66
2021/04/04 08:06:50;;;;;;;17.77;7.30;;;9.20;83.80;;;;;;5049982;28;20748;-67
2021/04/04 08:09:34;;;;;;;13.57;6.83;;;9.40;84.40;;;;;;5050153;28;20489;-66
2021/04/04 08:12:05;;;;;;;17.30;8.70;;;9.40;81.90;;;;;;5049862;28;20493;-66
2021/04/04 08:14:42;;;;;;;13.20;6.67;;;9.50;80.80;;;;;;5050118;28;20417;-67
2021/04/04 08:17:09;;;;;;;13.97;6.70;;;9.50;79.50;;;;;;5050122;28;20425;-67
2021/04/04 08:19:34;;;;;;;17.33;6.73;;;9.60;80.10;;;;;;5050218;28;20418;-65
2021/04/04 08:22:10;;;;;;;14.53;6.70;;;9.70;80.00;;;;;;5050114;28;20503;-67
2021/04/04 08:24:47;;;;;;;17.53;5.40;;;9.80;79.50;;;;;;5050159;28;20185;-67
2021/04/04 08:27:21;;;;;;;13.57;6.20;;;9.90;79.50;;;;;;5050316;28;20413;-67
2021/04/04 08:30:26;;;;;;;18.33;6.07;;;10.00;78.00;;;;;;5050188;28;20179;-67
2021/04/04 08:32:55;;;;;;;14.60;6.70;;;10.00;78.00;;;;;;4968962;28;20455;-66
2021/04/04 08:35:27;;;;;;;14.27;5.50;;;10.10;77.90;;;;;;5035355;28;20417;-68
2021/04/04 08:37:55;;;;;;;11.40;6.47;;;10.10;76.60;;;;;;5050011;28;20900;-66
2021/04/04 08:40:22;;;;;;;15.53;6.43;;;10.10;76.50;;;;;;5049618;28;20772;-68
2021/04/04 08:42:50;;;;;;;14.40;7.33;;;10.10;77.00;;;;;;5049837;28;20493;-67
2021/04/04 08:45:22;;;;;;;12.67;6.73;;;10.00;76.80;;;;;;5049606;28;20410;-67
2021/04/04 08:47:49;;;;;;;14.90;5.60;;;10.10;75.90;;;;;;5049944;28;20518;-66
2021/04/04 08:50:18;;;;;;;18.97;6.43;;;10.20;77.60;;;;;;5049748;28;20418;-65
2021/04/04 08:52:47;;;;;;;13.10;6.33;;;10.20;75.00;;;;;;5048822;28;20795;-67
2021/04/04 08:55:19;;;;;;;16.53;6.60;;;10.30;75.40;;;;;;5049732;28;20184;-65
2021/04/04 08:57:47;;;;;;;15.33;6.40;;;10.40;74.30;;;;;;5030026;28;20442;-67
2021/04/04 09:00:14;;;;;;;14.23;6.90;;;10.50;74.50;;;;;;5046203;28;20732;-66
2021/04/04 09:03:01;;;;;;;14.67;6.63;;;10.70;74.30;;;;;;5049707;28;20518;-65
2021/04/04 09:05:30;;;;;;;22.03;6.70;;;10.80;73.00;;;;;;5049623;28;20261;-66
2021/04/04 09:08:04;;;;;;;16.93;6.80;;;10.80;69.20;;;;;;5049741;28;20171;-66
2021/04/04 09:10:33;;;;;;;12.90;5.77;;;10.80;70.60;;;;;;5050788;28;20335;-65
2021/04/04 09:12:59;;;;;;;17.87;6.83;;;11.00;71.40;;;;;;5053479;28;20505;-66
2021/04/04 09:15:27;;;;;;;19.30;6.73;;;11.00;69.70;;;;;;5053400;28;20179;-67
2021/04/04 09:17:56;;;;;;;16.53;6.60;;;11.00;69.20;;;;;;5053247;28;20540;-69
2021/04/04 09:20:37;;;;;;;14.43;5.93;;;11.00;69.90;;;;;;5053140;28;20195;-68
2021/04/04 09:23:06;;;;;;;15.37;6.37;;;11.20;68.50;;;;;;5052794;28;20281;-66
2021/04/04 09:25:35;;;;;;;17.33;6.37;;;11.30;66.30;;;;;;5035575;28;20172;-67
2021/04/04 09:28:06;;;;;;;14.37;6.27;;;11.30;66.30;;;;;;5033223;28;20238;-68
2021/04/04 09:30:38;;;;;;;15.07;6.40;;;11.40;65.50;;;;;;5052048;28;20512;-67
2021/04/04 09:33:16;;;;;;;14.17;5.77;;;11.50;65.90;;;;;;5051900;28;20179;-64
2021/04/04 09:35:44;;;;;;;18.97;6.33;;;11.70;66.30;;;;;;5052938;28;20267;-66
2021/04/04 09:38:15;;;;;;;16.23;6.87;;;11.70;64.30;;;;;;5052844;28;20304;-64
2021/04/04 09:40:42;;;;;;;12.60;6.00;;;11.70;63.30;;;;;;5034917;28;20195;-64
2021/04/04 09:43:17;;;;;;;16.57;6.53;;;11.80;63.40;;;;;;5052725;28;20198;-63
2021/04/04 09:45:43;;;;;;;11.43;5.70;;;12.00;64.30;;;;;;5052596;28;20175;-66
2021/04/04 09:48:29;;;;;;;12.13;5.90;;;12.20;62.10;;;;;;5052714;28;20858;-66
2021/04/04 09:51:08;;;;;;;13.03;6.53;;;12.30;59.40;;;;;;5052128;28;20197;-66
2021/04/04 09:53:48;;;;;;;14.60;6.00;;;12.30;60.50;;;;;;5052936;28;20704;-68
2021/04/04 09:56:16;;;;;;;13.47;6.20;;;12.30;61.10;;;;;;5052370;28;20486;-65
2021/04/04 09:58:46;;;;;;;14.03;5.73;;;12.40;60.00;;;;;;5052446;28;20232;-65
2021/04/04 10:01:22;;;;;;;11.93;5.60;;;12.50;59.50;;;;;;5052189;28;20238;-66
2021/04/04 10:03:56;;;;;;;13.67;5.00;;;12.60;58.20;;;;;;5052682;28;20237;-67
2021/04/04 10:06:21;;;;;;;12.40;6.03;;;12.60;57.20;;;;;;5052630;28;20508;-69
2021/04/04 10:09:03;;;;;;;16.80;5.77;;;12.10;58.50;;;;;;5052407;28;20228;-70
2021/04/04 10:11:30;;;;;;;13.00;6.10;;;12.10;59.80;;;;;;5052248;28;20186;-72
2021/04/04 10:14:10;;;;;;;14.77;6.20;;;12.20;60.30;;;;;;5052424;28;20183;-68
2021/04/04 10:16:36;;;;;;;12.40;4.80;;;12.40;57.90;;;;;;5052074;28;20654;-69
2021/04/04 10:19:04;;;;;;;10.23;6.20;;;12.50;58.00;;;;;;5052379;28;20256;-66
2021/04/04 10:21:31;;;;;;;14.40;5.77;;;12.50;58.20;;;;;;5051329;28;20206;-68
2021/04/04 10:23:56;;;;;;;11.43;5.43;;;12.70;57.50;;;;;;5050378;28;20172;-70
2021/04/04 10:26:23;;;;;;;11.20;4.97;;;12.70;56.50;;;;;;5052100;28;20178;-67
2021/04/04 10:29:00;;;;;;;11.07;5.27;;;12.90;55.80;;;;;;5052273;28;20202;-70
2021/04/04 10:31:26;;;;;;;12.87;5.90;;;12.90;54.20;;;;;;5046376;28;20648;-69
2021/04/04 10:33:58;;;;;;;12.07;5.50;;;12.60;54.60;;;;;;5041306;28;20221;-69
2021/04/04 10:36:25;;;;;;;12.33;5.73;;;12.60;55.90;;;;;;5052381;28;20179;-68
2021/04/04 10:38:51;;;;;;;11.97;4.73;;;12.80;56.60;;;;;;5052165;28;20269;-69
2021/04/04 10:41:29;;;;;;;11.07;5.13;;;13.00;55.70;;;;;;5052021;28;20198;-68
2021/04/04 10:43:55;;;;;;;11.90;5.20;;;13.30;53.30;;;;;;5051805;28;20171;-70
2021/04/04 10:46:33;;;;;;;10.33;5.27;;;13.20;52.20;;;;;;5050130;28;20673;-71
2021/04/04 10:48:59;;;;;;;16.60;5.50;;;12.80;53.40;;;;;;5033004;28;20182;-70
2021/04/04 10:51:26;;;;;;;15.60;5.47;;;12.70;53.80;;;;;;5052438;28;20204;-69
2021/04/04 10:53:52;;;;;;;16.63;5.83;;;12.90;55.40;;;;;;5052406;28;20175;-69
2021/04/04 10:56:18;;;;;;;12.80;4.77;;;13.20;53.30;;;;;;5034351;28;20183;-68
2021/04/04 10:58:44;;;;;;;10.30;4.50;;;13.50;52.60;;;;;;5051394;28;20532;-70
2021/04/04 11:01:12;;;;;;;12.10;4.80;;;13.70;51.40;;;;;;5051270;28;20191;-72
2021/04/04 11:03:43;;;;;;;10.33;5.33;;;14.00;51.00;;;;;;5051137;28;20166;-67
2021/04/04 11:06:10;;;;;;;17.73;5.30;;;14.30;50.90;;;;;;5051144;28;20171;-69
2021/04/04 11:08:36;;;;;;;11.37;5.17;;;14.60;49.20;;;;;;5048795;28;20226;-71
2021/04/04 11:11:02;;;;;;;11.77;5.17;;;14.60;49.00;;;;;;5051297;28;20187;-70
2021/04/04 11:13:28;;;;;;;14.70;5.33;;;14.70;49.30;;;;;;5051174;28;20179;-70
2021/04/04 11:16:06;;;;;;;12.47;6.20;;;14.80;48.20;;;;;;5050959;28;20183;-68
2021/04/04 11:18:43;;;;;;;9.20;5.07;;;14.80;48.40;;;;;;5048670;28;20183;-69
2021/04/04 11:21:17;;;;;;;14.37;5.30;;;15.00;47.60;;;;;;5046515;28;20260;-67
2021/04/04 11:23:44;;;;;;;12.53;5.07;;;14.60;46.80;;;;;;5051364;28;20178;-72
2021/04/04 11:26:29;;;;;;;10.17;5.13;;;14.60;48.30;;;;;;5051021;28;20171;-68
2021/04/04 11:29:10;;;;;;;9.90;4.93;;;14.60;48.10;;;;;;5051428;28;20167;-70
2021/04/04 11:31:40;;;;;;;16.03;5.10;;;14.90;49.00;;;;;;5050647;28;20175;-69
2021/04/04 11:34:29;;;;;;;11.80;4.97;;;15.10;47.60;;;;;;5050445;28;20171;-70
2021/04/04 11:36:54;;;;;;;11.30;5.57;;;14.90;45.10;;;;;;5051203;28;20181;-69
2021/04/04 11:39:21;;;;;;;10.90;4.50;;;14.80;47.70;;;;;;5050875;28;20174;-69
2021/04/04 11:41:52;;;;;;;9.00;5.03;;;15.00;47.70;;;;;;5051366;28;20198;-71
2021/04/04 11:44:31;;;;;;;11.83;5.07;;;15.30;47.30;;;;;;5050506;28;20194;-69
2021/04/04 11:47:16;;;;;;;10.60;5.43;;;15.30;45.30;;;;;;5043214;28;20234;-67
2021/04/04 11:49:44;;;;;;;7.97;4.70;;;15.30;45.10;;;;;;5051187;28;20175;-69
2021/04/04 11:52:10;;;;;;;11.87;5.27;;;15.00;44.50;;;;;;5051336;28;20190;-67
2021/04/04 11:54:44;;;;;;;13.43;5.20;;;14.50;46.60;;;;;;5051198;28;20179;-67
2021/04/04 11:57:30;;;;;;;12.43;5.80;;;14.70;46.90;;;;;;5051034;28;20722;-69
2021/04/04 11:59:56;;;;;;;10.23;5.07;;;14.90;46.30;;;;;;5035750;28;20549;-68
2021/04/04 12:02:28;;;;;;;10.93;5.07;;;15.30;46.10;;;;;;5051204;28;20167;-69
2021/04/04 12:05:01;;;;;;;12.63;5.90;;;15.80;45.10;;;;;;5032801;28;20171;-67
2021/04/04 12:07:27;;;;;;;14.77;6.60;;;16.10;45.30;;;;;;5051075;28;20182;-67
2021/04/04 12:09:54;;;;;;;14.40;6.20;;;16.30;44.90;;;;;;5050685;28;20171;-70
2021/04/04 12:12:20;;;;;;;12.63;5.77;;;16.60;44.30;;;;;;5045605;28;20578;-69
2021/04/04 12:14:50;;;;;;;10.20;5.33;;;16.80;43.80;;;;;;5046242;28;20279;-68
2021/04/04 12:17:17;;;;;;;12.33;5.70;;;17.00;42.20;;;;;;5050614;28;20202;-67
2021/04/04 12:19:44;;;;;;;13.80;6.50;;;17.20;43.20;;;;;;5050969;28;20174;-68
2021/04/04 12:22:11;;;;;;;12.77;5.83;;;17.60;41.60;;;;;;5050228;28;20226;-67
2021/04/04 12:24:49;;;;;;;12.13;5.23;;;17.50;42.10;;;;;;5050822;28;20609;-67
2021/04/04 12:27:17;;;;;;;12.13;5.70;;;17.60;41.80;;;;;;5050540;28;20174;-69
2021/04/04 12:29:43;;;;;;;14.10;5.53;;;17.60;40.80;;;;;;5046136;28;20200;-67
2021/04/04 12:32:10;;;;;;;12.53;5.67;;;17.80;41.50;;;;;;5041676;28;20637;-66
2021/04/04 12:34:42;;;;;;;11.33;6.00;;;17.50;40.40;;;;;;5050335;28;20202;-68
2021/04/04 12:37:15;;;;;;;14.77;6.37;;;17.20;41.50;;;;;;5050631;28;20579;-67
2021/04/04 12:39:42;;;;;;;12.27;6.00;;;17.40;41.90;;;;;;5042435;28;20185;-68
2021/04/04 12:42:13;;;;;;;10.87;5.83;;;17.40;40.00;;;;;;5050839;28;20220;-68
2021/04/04 12:44:42;;;;;;;12.10;5.63;;;16.80;40.70;;;;;;5050424;28;20176;-66
2021/04/04 12:47:10;;;;;;;10.80;6.30;;;17.00;40.60;;;;;;5052996;28;20221;-65
2021/04/04 12:49:37;;;;;;;9.77;6.20;;;17.30;41.50;;;;;;5052407;28;20179;-66
2021/04/04 12:52:04;;;;;;;13.23;5.97;;;17.80;41.00;;;;;;5054300;28;20183;-66
2021/04/04 12:54:29;;;;;;;14.03;5.97;;;18.40;39.60;;;;;;5040370;28;20175;-68
2021/04/04 12:56:55;;;;;;;11.90;5.70;;;18.80;38.70;;;;;;5035035;28;20502;-66
2021/04/04 12:59:21;;;;;;;11.90;6.40;;;19.00;36.80;;;;;;5054579;28;20305;-67
2021/04/04 13:01:47;;;;;;;10.93;5.60;;;19.40;37.70;;;;;;5054002;28;20207;-69
2021/04/04 13:04:23;;;;;;;11.63;5.67;;;19.30;36.10;;;;;;5054551;28;20505;-68
2021/04/04 13:06:50;;;;;;;9.60;5.70;;;19.30;37.00;;;;;;5054089;28;20174;-67
2021/04/04 13:09:17;;;;;;;12.43;6.40;;;19.20;36.10;;;;;;5054193;28;20175;-69
2021/04/04 13:11:44;;;;;;;10.87;6.90;;;19.20;35.90;;;;;;5035395;28;20696;-67